Time;durP1;ratioP1;P1;durP2;ratioP2;P2;SDS_P1;SDS_P2;PMS_P1;PMS_P2;Temp;Humidity;BMP_temperature;BMP_pressure;BME280_temperature;BME280_humidity;BME280_pressure;Samples;Min_cycle;Max_cycle;Signal;HPM_P1;HPM_P2
2023/06/13 00:00:59;;;;;;;0.20;0.20;;;19.90;72.90;;;;;;4413228;32;20162;-78
2023/06/13 00:03:26;;;;;;;0.20;0.20;;;19.80;73.40;;;;;;4414060;32;20082;-77
2023/06/13 00:05:54;;;;;;;0.30;0.30;;;19.70;73.90;;;;;;4411535;32;20186;-77
2023/06/13 00:08:21;;;;;;;0.45;0.37;;;19.60;74.40;;;;;;4409941;32;20112;-77
2023/06/13 00:10:47;;;;;;;0.30;0.30;;;19.60;74.60;;;;;;4410712;32;20459;-76
2023/06/13 00:13:15;;;;;;;0.70;0.50;;;19.60;74.70;;;;;;4411340;32;20620;-76
2023/06/13 00:15:48;;;;;;;1.67;0.95;;;19.50;75.50;;;;;;4411175;32;20061;-77
2023/06/13 00:18:15;;;;;;;0.40;0.40;;;19.30;76.30;;;;;;4412524;32;20062;-77
2023/06/13 00:20:41;;;;;;;1.20;0.82;;;19.10;76.90;;;;;;4413171;32;20506;-76
2023/06/13 00:23:08;;;;;;;0.22;0.22;;;19.00;77.70;;;;;;4412693;32;20058;-76
2023/06/13 00:25:34;;;;;;;2.05;1.00;;;18.90;77.90;;;;;;4411893;32;20110;-77
2023/06/13 00:28:00;;;;;;;0.60;0.60;;;18.80;78.30;;;;;;4413425;32;20062;-77
2023/06/13 00:30:26;;;;;;;0.73;0.40;;;18.80;78.70;;;;;;4414730;32;20074;-76
2023/06/13 00:32:56;;;;;;;0.43;0.43;;;18.70;79.00;;;;;;4414347;32;20086;-76
2023/06/13 00:35:22;;;;;;;1.90;1.20;;;18.70;79.20;;;;;;4396941;32;20631;-76
2023/06/13 00:37:54;;;;;;;0.68;0.60;;;18.70;79.40;;;;;;4409698;32;20085;-77
2023/06/13 00:40:20;;;;;;;0.57;0.50;;;18.60;79.30;;;;;;4412821;32;20115;-77
2023/06/13 00:42:46;;;;;;;0.50;0.50;;;18.70;79.00;;;;;;4411835;32;20153;-77
2023/06/13 00:45:21;;;;;;;1.12;0.55;;;18.80;78.60;;;;;;4413156;32;20159;-76
2023/06/13 00:47:52;;;;;;;0.68;0.60;;;18.90;78.40;;;;;;4410631;32;20113;-77
2023/06/13 00:50:19;;;;;;;;;;;19.00;78.30;;;;;;4411317;32;20080;-77
2023/06/13 00:52:46;;;;;;;0.30;0.30;;;19.00;78.50;;;;;;4415306;32;19965;-77
2023/06/13 00:55:14;;;;;;;0.30;0.30;;;18.90;79.60;;;;;;4411688;32;20411;-77
2023/06/13 00:57:39;;;;;;;0.50;0.43;;;18.90;78.70;;;;;;4411502;32;20539;-78
2023/06/13 01:00:06;;;;;;;1.25;0.43;;;19.00;78.50;;;;;;4413124;32;20069;-76
2023/06/13 01:02:33;;;;;;;0.68;0.68;;;18.90;78.70;;;;;;4409388;32;20108;-78
2023/06/13 01:05:02;;;;;;;0.40;0.40;;;18.80;79.20;;;;;;4410432;32;20106;-77
2023/06/13 01:07:33;;;;;;;0.40;0.40;;;18.80;79.10;;;;;;4410673;32;20082;-77
2023/06/13 01:09:59;;;;;;;0.20;0.20;;;18.70;79.40;;;;;;4413521;32;20075;-77
2023/06/13 01:12:35;;;;;;;0.30;0.30;;;18.70;79.60;;;;;;4411005;32;20058;-77
2023/06/13 01:15:07;;;;;;;1.85;0.40;;;18.70;80.30;;;;;;4411607;32;20078;-77
2023/06/13 01:17:40;;;;;;;0.35;0.35;;;18.60;79.80;;;;;;4413991;32;20552;-77
2023/06/13 01:20:13;;;;;;;2.50;0.50;;;18.60;79.90;;;;;;4411528;32;20089;-77
2023/06/13 01:23:08;;;;;;;0.32;0.32;;;18.50;80.30;;;;;;4411393;32;20059;-77
2023/06/13 01:26:04;;;;;;;0.37;0.28;;;18.40;80.70;;;;;;4395035;32;20572;-77
2023/06/13 01:28:33;;;;;;;0.20;0.20;;;18.30;81.00;;;;;;4399000;32;20074;-77
2023/06/13 01:31:01;;;;;;;0.22;0.22;;;18.30;81.20;;;;;;4411071;32;20572;-77
2023/06/13 01:33:27;;;;;;;0.30;0.30;;;18.30;81.10;;;;;;4414798;32;20061;-77
2023/06/13 01:35:53;;;;;;;0.77;0.62;;;18.40;81.20;;;;;;4413473;32;20078;-78
2023/06/13 01:38:19;;;;;;;1.45;0.73;;;18.30;81.30;;;;;;4414570;32;20081;-78
2023/06/13 01:40:45;;;;;;;1.02;0.68;;;18.30;81.60;;;;;;4410882;32;20078;-78
2023/06/13 01:43:10;;;;;;;4.30;0.32;;;18.20;81.70;;;;;;4415351;32;20431;-77
2023/06/13 01:45:36;;;;;;;0.20;0.20;;;18.10;82.00;;;;;;4411749;32;20458;-78
2023/06/13 01:48:21;;;;;;;0.30;0.30;;;18.10;82.20;;;;;;4417232;32;20135;-77
2023/06/13 01:50:52;;;;;;;0.35;0.35;;;18.00;82.30;;;;;;4399846;32;20094;-77
2023/06/13 01:53:39;;;;;;;0.90;0.50;;;18.00;82.80;;;;;;4414236;32;20082;-77
2023/06/13 01:56:12;;;;;;;0.70;0.45;;;17.90;83.20;;;;;;4404825;32;20074;-77
2023/06/13 01:58:48;;;;;;;0.20;0.20;;;17.80;83.70;;;;;;4416735;32;20062;-77
2023/06/13 02:01:14;;;;;;;3.20;0.45;;;17.90;83.10;;;;;;4414221;32;20166;-77
2023/06/13 02:03:41;;;;;;;0.88;0.80;;;17.90;82.30;;;;;;4415871;32;20094;-77
2023/06/13 02:06:06;;;;;;;0.28;0.28;;;18.00;82.00;;;;;;4417038;32;20794;-77
2023/06/13 02:08:32;;;;;;;0.32;0.32;;;17.90;82.40;;;;;;4418776;32;20124;-78
2023/06/13 02:10:57;;;;;;;0.25;0.25;;;17.90;83.00;;;;;;4420776;32;20501;-77
2023/06/13 02:13:24;;;;;;;0.20;0.20;;;17.90;83.30;;;;;;4419288;32;20066;-77
2023/06/13 02:15:50;;;;;;;0.40;0.40;;;17.80;82.90;;;;;;4415582;32;20458;-78
2023/06/13 02:18:16;;;;;;;0.85;0.60;;;17.70;82.80;;;;;;4415357;32;20640;-78
2023/06/13 02:20:42;;;;;;;0.32;0.32;;;17.80;82.80;;;;;;4417726;32;20058;-77
2023/06/13 02:23:09;;;;;;;1.40;0.88;;;17.70;82.80;;;;;;4418047;32;20070;-77
2023/06/13 02:25:35;;;;;;;1.65;0.60;;;17.80;82.80;;;;;;4415433;32;20054;-78
2023/06/13 02:28:01;;;;;;;1.30;0.77;;;17.80;82.40;;;;;;4415738;32;20082;-77
2023/06/13 02:30:26;;;;;;;0.47;0.30;;;17.80;82.70;;;;;;4419977;32;20105;-78
2023/06/13 02:32:52;;;;;;;3.17;0.50;;;17.70;82.80;;;;;;4413877;32;20077;-77
2023/06/13 02:35:23;;;;;;;8.52;0.73;;;17.70;82.80;;;;;;4416674;32;20054;-77
2023/06/13 02:37:53;;;;;;;0.32;0.32;;;17.70;82.70;;;;;;4416114;32;20081;-77
2023/06/13 02:40:19;;;;;;;1.08;0.62;;;17.80;82.60;;;;;;4415678;32;20069;-78
2023/06/13 02:42:49;;;;;;;0.25;0.25;;;17.80;82.80;;;;;;4416113;32;20074;-78
2023/06/13 02:45:15;;;;;;;0.75;0.50;;;17.70;82.90;;;;;;4419408;32;20075;-77
2023/06/13 02:47:40;;;;;;;0.45;0.45;;;17.50;83.60;;;;;;4416170;32;20140;-77
2023/06/13 02:50:06;;;;;;;0.20;0.20;;;17.40;84.50;;;;;;4416195;32;20074;-78
2023/06/13 02:52:33;;;;;;;0.65;0.55;;;17.30;85.00;;;;;;4416717;32;20095;-77
2023/06/13 02:54:59;;;;;;;0.62;0.45;;;17.30;84.90;;;;;;4416859;32;20112;-77
2023/06/13 02:57:25;;;;;;;0.73;0.62;;;17.40;84.40;;;;;;4416292;32;20411;-77
2023/06/13 02:59:50;;;;;;;0.65;0.57;;;17.40;84.70;;;;;;4416559;32;20595;-77
2023/06/13 03:02:16;;;;;;;0.55;0.40;;;17.50;84.80;;;;;;4416302;32;20426;-77
2023/06/13 03:04:41;;;;;;;0.30;0.30;;;17.50;84.70;;;;;;4415151;32;20120;-78
2023/06/13 03:07:09;;;;;;;0.50;0.50;;;17.50;84.70;;;;;;4416693;32;20418;-77
2023/06/13 03:09:35;;;;;;;0.40;0.40;;;17.50;85.10;;;;;;4414438;32;20127;-77
2023/06/13 03:12:00;;;;;;;0.57;0.57;;;17.40;85.00;;;;;;4416353;32;20410;-77
2023/06/13 03:14:26;;;;;;;0.60;0.57;;;17.10;85.90;;;;;;4415017;32;20066;-77
2023/06/13 03:16:52;;;;;;;0.68;0.50;;;17.00;86.40;;;;;;4416538;32;20085;-77
2023/06/13 03:19:18;;;;;;;0.65;0.65;;;16.90;87.80;;;;;;4415578;32;20065;-77
2023/06/13 03:21:44;;;;;;;0.30;0.30;;;16.80;87.30;;;;;;4412588;32;20591;-76
2023/06/13 03:24:10;;;;;;;0.98;0.52;;;16.90;87.40;;;;;;4413732;32;20073;-76
2023/06/13 03:26:38;;;;;;;0.35;0.35;;;16.90;87.70;;;;;;4415765;32;20739;-76
2023/06/13 03:29:04;;;;;;;0.40;0.40;;;16.90;87.30;;;;;;4412929;32;20171;-76
2023/06/13 03:31:30;;;;;;;0.25;0.25;;;16.90;87.50;;;;;;4413750;32;20166;-76
2023/06/13 03:33:56;;;;;;;0.47;0.47;;;17.00;88.10;;;;;;4412233;32;20204;-76
2023/06/13 03:36:21;;;;;;;0.20;0.20;;;17.10;87.40;;;;;;4413689;32;20129;-76
2023/06/13 03:38:46;;;;;;;0.40;0.40;;;17.10;87.50;;;;;;4412612;32;20062;-76
2023/06/13 03:41:12;;;;;;;0.30;0.30;;;17.00;88.00;;;;;;4415768;32;21160;-76
2023/06/13 03:43:37;;;;;;;3.85;1.15;;;16.90;88.50;;;;;;4413936;32;20398;-76
2023/06/13 03:46:04;;;;;;;0.70;0.70;;;16.80;88.90;;;;;;4413386;32;20573;-76
2023/06/13 03:48:30;;;;;;;0.43;0.43;;;16.70;89.30;;;;;;4412687;32;20537;-75
2023/06/13 03:50:56;;;;;;;0.30;0.30;;;16.60;89.50;;;;;;4414740;32;20097;-76
2023/06/13 03:53:22;;;;;;;0.52;0.52;;;16.60;89.50;;;;;;4412122;32;20082;-78
2023/06/13 03:55:47;;;;;;;0.80;0.70;;;16.80;89.80;;;;;;4414099;32;20085;-77
2023/06/13 03:58:13;;;;;;;0.75;0.70;;;16.70;89.30;;;;;;4416232;32;20148;-77
2023/06/13 04:00:39;;;;;;;1.10;0.93;;;16.80;89.10;;;;;;4415431;32;20101;-77
2023/06/13 04:03:07;;;;;;;0.82;0.82;;;16.80;89.00;;;;;;4413072;32;20108;-77
2023/06/13 04:05:33;;;;;;;0.55;0.43;;;16.90;89.50;;;;;;4415564;32;20066;-78
2023/06/13 04:07:59;;;;;;;1.02;0.80;;;17.00;89.80;;;;;;4415797;32;20440;-77
2023/06/13 04:10:25;;;;;;;0.40;0.40;;;16.90;89.90;;;;;;4415166;32;20101;-77
2023/06/13 04:12:51;;;;;;;0.40;0.40;;;17.00;89.80;;;;;;4415858;32;20078;-77
2023/06/13 04:15:17;;;;;;;0.55;0.55;;;17.10;90.00;;;;;;4412382;32;20073;-77
2023/06/13 04:17:43;;;;;;;0.28;0.28;;;17.00;90.20;;;;;;4412023;32;20085;-77
2023/06/13 04:20:09;;;;;;;5.40;0.75;;;17.00;90.10;;;;;;4414356;32;20713;-77
2023/06/13 04:22:35;;;;;;;4.20;1.20;;;17.10;90.30;;;;;;4408951;32;20082;-77
2023/06/13 04:25:01;;;;;;;0.30;0.30;;;17.20;90.30;;;;;;4413779;32;20082;-77
2023/06/13 04:27:28;;;;;;;0.62;0.62;;;17.10;90.30;;;;;;4411006;32;20062;-77
2023/06/13 04:29:56;;;;;;;0.30;0.30;;;17.00;90.60;;;;;;4413291;32;20072;-77
2023/06/13 04:32:23;;;;;;;0.40;0.40;;;16.90;90.80;;;;;;4414500;32;20082;-77
2023/06/13 04:34:52;;;;;;;0.75;0.75;;;16.90;91.00;;;;;;4414899;32;20070;-77
2023/06/13 04:37:23;;;;;;;0.60;0.60;;;16.90;90.80;;;;;;4415506;32;20499;-77
2023/06/13 04:39:50;;;;;;;0.65;0.60;;;16.90;91.20;;;;;;4412888;32;20069;-78
2023/06/13 04:42:21;;;;;;;0.30;0.30;;;17.00;91.20;;;;;;4414775;32;20103;-77
2023/06/13 04:44:48;;;;;;;4.55;1.62;;;17.10;91.10;;;;;;4411275;32;20431;-77
2023/06/13 04:47:13;;;;;;;1.52;0.77;;;17.00;90.90;;;;;;4412249;32;20147;-77
2023/06/13 04:49:40;;;;;;;0.57;0.57;;;16.90;90.90;;;;;;4414436;32;20112;-77
2023/06/13 04:52:06;;;;;;;0.93;0.55;;;16.90;90.80;;;;;;4411167;32;20057;-77
2023/06/13 04:54:33;;;;;;;0.62;0.60;;;17.10;90.60;;;;;;4417106;32;20508;-78
2023/06/13 04:56:59;;;;;;;0.30;0.30;;;17.20;90.60;;;;;;4412564;32;20419;-77
2023/06/13 04:59:25;;;;;;;0.60;0.60;;;17.30;90.80;;;;;;4412102;32;20090;-78
2023/06/13 05:01:51;;;;;;;1.55;1.05;;;17.40;90.30;;;;;;4409155;32;20586;-77
2023/06/13 05:04:16;;;;;;;0.75;0.70;;;17.50;89.10;;;;;;4410502;32;20073;-77
2023/06/13 05:06:43;;;;;;;0.52;0.52;;;17.60;88.30;;;;;;4408375;32;20077;-78
2023/06/13 05:09:10;;;;;;;2.22;1.02;;;17.80;88.30;;;;;;4414584;32;20082;-78
2023/06/13 05:11:35;;;;;;;3.10;0.55;;;17.90;87.50;;;;;;4414011;32;20065;-78
2023/06/13 05:14:01;;;;;;;1.95;1.08;;;18.00;87.10;;;;;;4413291;32;20062;-78
2023/06/13 05:16:29;;;;;;;3.00;0.73;;;18.00;87.10;;;;;;4412004;32;20065;-78
2023/06/13 05:18:57;;;;;;;0.45;0.45;;;18.10;87.20;;;;;;4403062;32;20065;-77
2023/06/13 05:21:23;;;;;;;3.58;0.82;;;18.10;87.00;;;;;;4415718;32;20828;-78
2023/06/13 05:23:48;;;;;;;0.68;0.68;;;18.00;86.90;;;;;;4412749;32;20127;-78
2023/06/13 05:26:14;;;;;;;1.92;1.08;;;18.00;87.10;;;;;;4405562;32;20074;-77
2023/06/13 05:28:40;;;;;;;5.35;2.55;;;18.10;86.90;;;;;;4409341;32;20662;-77
2023/06/13 05:31:07;;;;;;;1.92;1.23;;;18.00;87.70;;;;;;4398684;32;20120;-78
2023/06/13 05:33:33;;;;;;;3.05;1.33;;;18.00;87.60;;;;;;4401076;32;20076;-78
2023/06/13 05:36:00;;;;;;;0.50;0.50;;;18.20;87.20;;;;;;4409572;32;20089;-78
2023/06/13 05:38:27;;;;;;;1.40;0.80;;;18.20;86.50;;;;;;4404772;32;20192;-78
2023/06/13 05:40:54;;;;;;;0.40;0.40;;;18.30;86.60;;;;;;4404491;32;21914;-78
2023/06/13 05:43:20;;;;;;;0.88;0.70;;;18.40;86.30;;;;;;4400603;32;21163;-77
2023/06/13 05:45:48;;;;;;;0.40;0.40;;;18.50;86.80;;;;;;4396005;32;20546;-78
2023/06/13 05:48:14;;;;;;;0.80;0.68;;;18.60;86.90;;;;;;4398964;32;20089;-78
2023/06/13 05:50:40;;;;;;;1.48;0.68;;;18.70;86.60;;;;;;4400958;32;20154;-78
2023/06/13 05:53:06;;;;;;;0.52;0.50;;;18.70;86.70;;;;;;4400755;32;20093;-79
2023/06/13 05:55:31;;;;;;;4.30;0.47;;;18.70;86.40;;;;;;4393491;32;20537;-78
2023/06/13 05:57:58;;;;;;;0.40;0.40;;;18.80;86.60;;;;;;4395428;32;20228;-77
2023/06/13 06:00:23;;;;;;;0.62;0.62;;;18.90;85.10;;;;;;4394617;32;20684;-78
2023/06/13 06:02:50;;;;;;;0.20;0.20;;;19.00;85.70;;;;;;4384539;32;20117;-76
2023/06/13 06:05:19;;;;;;;0.55;0.55;;;19.10;85.10;;;;;;4390699;32;20086;-78
2023/06/13 06:07:45;;;;;;;0.50;0.50;;;19.20;83.40;;;;;;4399683;32;20118;-76
2023/06/13 06:10:11;;;;;;;1.23;0.60;;;19.20;83.10;;;;;;4391047;32;20632;-78
2023/06/13 06:12:37;;;;;;;0.40;0.40;;;19.30;81.50;;;;;;4388840;32;20082;-77
2023/06/13 06:15:04;;;;;;;0.62;0.50;;;19.50;81.00;;;;;;4392244;32;20074;-78
2023/06/13 06:17:29;;;;;;;0.47;0.40;;;19.50;81.20;;;;;;4392644;32;20593;-79
2023/06/13 06:19:56;;;;;;;0.80;0.80;;;19.60;81.10;;;;;;4400406;32;20197;-79
2023/06/13 06:22:22;;;;;;;3.47;1.10;;;19.70;80.00;;;;;;4388362;32;20094;-79
2023/06/13 06:24:48;;;;;;;0.95;0.50;;;19.70;79.40;;;;;;4397661;32;20077;-78
2023/06/13 06:27:15;;;;;;;0.47;0.47;;;19.70;80.10;;;;;;4398207;32;20530;-79
2023/06/13 06:29:42;;;;;;;0.45;0.45;;;19.70;79.70;;;;;;4395349;32;20746;-78
2023/06/13 06:32:08;;;;;;;1.00;0.88;;;19.80;79.60;;;;;;4393176;32;20106;-79
2023/06/13 06:34:34;;;;;;;2.65;1.10;;;19.60;78.30;;;;;;4391528;32;20077;-77
2023/06/13 06:37:00;;;;;;;3.75;1.40;;;19.50;79.60;;;;;;4394391;32;20633;-77
2023/06/13 06:39:25;;;;;;;0.43;0.43;;;19.60;80.20;;;;;;4390729;32;20057;-77
2023/06/13 06:41:51;;;;;;;0.60;0.60;;;19.70;79.60;;;;;;4388457;32;20121;-77
2023/06/13 06:44:16;;;;;;;0.70;0.70;;;19.80;77.90;;;;;;4391822;32;21124;-77
2023/06/13 06:46:42;;;;;;;0.32;0.32;;;19.90;78.10;;;;;;4395116;32;20129;-77
2023/06/13 06:49:07;;;;;;;1.55;0.62;;;19.90;78.30;;;;;;4389954;32;20081;-77
2023/06/13 06:51:33;;;;;;;5.28;0.85;;;19.90;78.30;;;;;;4390929;32;20667;-77
2023/06/13 06:53:59;;;;;;;0.40;0.40;;;19.90;79.70;;;;;;4392803;32;20077;-77
2023/06/13 06:56:25;;;;;;;1.85;1.12;;;19.70;79.60;;;;;;4386139;32;20667;-77
2023/06/13 06:58:51;;;;;;;0.30;0.30;;;19.80;79.80;;;;;;4391245;32;20069;-78
2023/06/13 07:01:18;;;;;;;0.43;0.43;;;19.80;78.70;;;;;;4397112;32;20085;-78
2023/06/13 07:03:45;;;;;;;0.45;0.45;;;19.80;78.40;;;;;;4392801;32;20098;-78
2023/06/13 07:06:13;;;;;;;0.52;0.40;;;19.90;78.90;;;;;;4392559;32;21035;-78
2023/06/13 07:08:42;;;;;;;1.98;0.90;;;20.00;78.90;;;;;;4392221;32;20061;-78
2023/06/13 07:11:07;;;;;;;0.40;0.40;;;20.00;78.20;;;;;;4401643;32;20713;-78
2023/06/13 07:13:32;;;;;;;1.23;0.80;;;20.10;76.90;;;;;;4394606;32;20097;-78
2023/06/13 07:16:00;;;;;;;2.05;0.90;;;20.20;77.00;;;;;;4389906;32;20082;-78
2023/06/13 07:18:25;;;;;;;1.25;0.80;;;20.40;75.90;;;;;;4386032;32;20414;-78
2023/06/13 07:20:51;;;;;;;1.27;0.70;;;20.40;75.40;;;;;;4378554;32;20097;-78
2023/06/13 07:23:16;;;;;;;0.35;0.35;;;20.40;74.70;;;;;;4382745;32;20129;-78
2023/06/13 07:25:42;;;;;;;2.10;1.12;;;20.40;75.20;;;;;;4381129;32;20188;-78
2023/06/13 07:28:08;;;;;;;0.65;0.62;;;20.40;75.40;;;;;;4380266;32;20081;-78
2023/06/13 07:30:34;;;;;;;1.17;0.80;;;20.30;75.80;;;;;;4376003;32;20169;-78
2023/06/13 07:32:59;;;;;;;1.80;0.82;;;20.30;75.60;;;;;;4378601;32;20188;-77
2023/06/13 07:35:25;;;;;;;0.30;0.30;;;20.40;76.40;;;;;;4382150;32;20449;-78
2023/06/13 07:37:52;;;;;;;0.30;0.30;;;20.60;76.50;;;;;;4398188;32;20401;-79
2023/06/13 07:40:18;;;;;;;0.45;0.45;;;20.70;75.80;;;;;;4390624;32;20105;-79
2023/06/13 07:42:43;;;;;;;2.85;1.30;;;20.90;75.40;;;;;;4397064;32;20764;-78
2023/06/13 07:45:14;;;;;;;0.80;0.80;;;21.00;75.70;;;;;;4399300;32;20176;-79
2023/06/13 07:47:40;;;;;;;;;;;21.20;73.90;;;;;;4387796;32;20253;-77
2023/06/13 07:50:06;;;;;;;0.40;0.40;;;21.50;72.30;;;;;;4380107;32;19961;-79
2023/06/13 07:52:32;;;;;;;0.43;0.43;;;21.70;71.70;;;;;;4391507;32;20140;-78
2023/06/13 07:54:57;;;;;;;0.75;0.52;;;21.90;72.10;;;;;;4395055;32;20079;-76
2023/06/13 07:57:23;;;;;;;0.90;0.60;;;22.00;72.60;;;;;;4391080;32;20113;-78
2023/06/13 07:59:48;;;;;;;0.62;0.62;;;22.00;70.40;;;;;;4384657;32;20077;-76
2023/06/13 08:02:14;;;;;;;0.40;0.40;;;22.10;70.00;;;;;;4377493;32;20081;-79
2023/06/13 08:04:40;;;;;;;0.50;0.50;;;22.00;70.60;;;;;;4396355;32;20153;-78
2023/06/13 08:07:05;;;;;;;0.20;0.20;;;22.00;70.20;;;;;;4391606;32;20829;-78
2023/06/13 08:09:31;;;;;;;0.43;0.35;;;22.10;69.60;;;;;;4391400;32;20116;-77
2023/06/13 08:11:58;;;;;;;0.65;0.50;;;22.10;69.60;;;;;;4399996;32;20549;-77
2023/06/13 08:14:23;;;;;;;1.45;0.93;;;22.00;70.20;;;;;;4398370;32;20173;-77
2023/06/13 08:16:49;;;;;;;1.00;0.75;;;22.20;71.20;;;;;;4393506;32;20086;-77
2023/06/13 08:19:15;;;;;;;0.60;0.60;;;22.20;70.70;;;;;;4391492;32;20082;-77
2023/06/13 08:21:41;;;;;;;0.20;0.20;;;22.40;70.70;;;;;;4396040;32;20061;-77
2023/06/13 08:24:06;;;;;;;0.65;0.57;;;22.60;71.00;;;;;;4395630;32;20533;-76
2023/06/13 08:26:32;;;;;;;2.20;1.00;;;22.60;70.00;;;;;;4397839;32;20090;-76
2023/06/13 08:28:59;;;;;;;0.43;0.43;;;22.50;70.20;;;;;;4397906;32;20093;-77
2023/06/13 08:31:24;;;;;;;3.33;0.57;;;22.40;70.50;;;;;;4393824;32;20426;-77
2023/06/13 08:33:51;;;;;;;0.30;0.30;;;22.50;70.00;;;;;;4391770;32;20090;-77
2023/06/13 08:36:17;;;;;;;0.80;0.50;;;22.70;70.00;;;;;;4393517;32;20686;-76
2023/06/13 08:38:42;;;;;;;0.22;0.22;;;22.90;68.40;;;;;;4391820;32;20094;-77
2023/06/13 08:41:09;;;;;;;0.30;0.30;;;22.90;68.20;;;;;;4394172;32;20077;-77
2023/06/13 08:43:35;;;;;;;0.40;0.40;;;23.00;68.70;;;;;;4389151;32;20089;-76
2023/06/13 08:46:00;;;;;;;0.40;0.40;;;23.20;67.60;;;;;;4388686;32;20090;-76
2023/06/13 08:48:26;;;;;;;0.40;0.40;;;23.30;66.50;;;;;;4395280;32;20106;-76
2023/06/13 08:50:53;;;;;;;0.82;0.65;;;23.10;66.50;;;;;;4393415;32;20181;-76
2023/06/13 08:53:20;;;;;;;0.40;0.40;;;23.10;67.80;;;;;;4392875;32;21304;-77
2023/06/13 08:55:49;;;;;;;0.68;0.68;;;22.90;65.70;;;;;;4388312;32;20109;-76
2023/06/13 08:58:18;;;;;;;0.40;0.40;;;22.70;66.10;;;;;;4384308;32;20094;-76
2023/06/13 09:00:47;;;;;;;1.02;0.75;;;22.70;66.20;;;;;;4389175;32;20085;-77
2023/06/13 09:03:14;;;;;;;0.40;0.40;;;22.70;67.00;;;;;;4389783;32;20211;-76
2023/06/13 09:05:40;;;;;;;1.10;0.85;;;22.90;67.60;;;;;;4383229;32;20112;-77
2023/06/13 09:08:06;;;;;;;0.35;0.35;;;23.10;65.60;;;;;;4381863;32;20080;-77
2023/06/13 09:10:33;;;;;;;0.40;0.40;;;23.20;64.80;;;;;;4390632;32;20530;-77
2023/06/13 09:12:59;;;;;;;0.20;0.20;;;23.30;65.70;;;;;;4379615;32;20101;-77
2023/06/13 09:15:26;;;;;;;0.30;0.30;;;23.50;64.40;;;;;;4372074;32;20620;-76
2023/06/13 09:17:53;;;;;;;0.65;0.60;;;23.50;63.50;;;;;;4378851;32;20081;-76
2023/06/13 09:20:19;;;;;;;0.35;0.35;;;23.40;64.90;;;;;;4379335;32;20146;-78
2023/06/13 09:22:46;;;;;;;0.40;0.40;;;23.50;65.60;;;;;;4374631;32;20085;-78
2023/06/13 09:25:16;;;;;;;1.95;1.17;;;23.60;65.50;;;;;;4375239;32;20078;-77
2023/06/13 09:27:42;;;;;;;0.30;0.30;;;23.60;65.30;;;;;;4378650;32;20961;-78
2023/06/13 09:30:09;;;;;;;0.20;0.20;;;23.70;65.50;;;;;;4373119;32;21625;-79
2023/06/13 09:32:35;;;;;;;0.43;0.43;;;23.70;65.90;;;;;;4388096;32;20098;-80
2023/06/13 09:35:03;;;;;;;0.90;0.90;;;23.70;66.70;;;;;;4384714;32;20102;-79
2023/06/13 09:37:29;;;;;;;0.20;0.20;;;23.80;66.90;;;;;;4391258;32;20114;-80
2023/06/13 09:40:01;;;;;;;0.30;0.30;;;24.00;67.10;;;;;;4387760;32;20085;-80
2023/06/13 09:42:26;;;;;;;1.12;0.62;;;24.20;65.60;;;;;;4386233;32;20089;-79
2023/06/13 09:44:52;;;;;;;0.68;0.57;;;24.30;65.80;;;;;;4391220;32;20750;-79
2023/06/13 09:47:22;;;;;;;0.30;0.30;;;24.30;66.70;;;;;;4389870;32;20323;-80
2023/06/13 09:49:54;;;;;;;0.22;0.22;;;24.50;65.50;;;;;;4396573;32;20070;-79
2023/06/13 09:52:23;;;;;;;0.35;0.30;;;24.40;64.00;;;;;;4396284;32;20077;-78
2023/06/13 09:54:49;;;;;;;8.35;1.95;;;24.30;64.00;;;;;;4398711;32;20197;-78
2023/06/13 09:57:19;;;;;;;1.00;0.88;;;24.10;63.90;;;;;;4392401;32;20089;-79
2023/06/13 09:59:48;;;;;;;0.28;0.28;;;24.20;64.80;;;;;;4403554;32;20117;-79
2023/06/13 10:02:16;;;;;;;0.20;0.20;;;24.40;64.00;;;;;;4392623;32;20117;-79
2023/06/13 10:04:43;;;;;;;0.52;0.52;;;24.70;62.70;;;;;;4397831;32;20565;-78
2023/06/13 10:07:11;;;;;;;2.10;0.57;;;24.90;59.00;;;;;;4397949;32;20143;-80
2023/06/13 10:09:39;;;;;;;0.95;0.70;;;25.00;58.90;;;;;;4396379;32;20166;-77
2023/06/13 10:12:10;;;;;;;3.80;1.33;;;24.80;57.40;;;;;;4394351;32;20707;-79
2023/06/13 10:14:40;;;;;;;1.65;1.02;;;25.00;57.00;;;;;;4397298;32;20777;-79
2023/06/13 10:17:11;;;;;;;0.30;0.30;;;25.00;57.00;;;;;;4397570;32;20809;-81
2023/06/13 10:19:41;;;;;;;1.27;0.30;;;25.10;55.40;;;;;;4396367;32;20447;-79
2023/06/13 10:22:08;;;;;;;0.73;0.62;;;25.40;55.30;;;;;;4398578;32;20106;-78
2023/06/13 10:24:36;;;;;;;3.30;1.05;;;25.40;56.60;;;;;;4397346;32;20128;-80
2023/06/13 10:27:03;;;;;;;0.25;0.25;;;25.70;56.00;;;;;;4391784;32;20569;-78
2023/06/13 10:29:58;;;;;;;0.28;0.28;;;26.00;55.90;;;;;;4385696;32;20097;-79
2023/06/13 10:32:56;;;;;;;1.65;1.10;;;26.00;56.00;;;;;;4374948;32;20070;-77
2023/06/13 10:35:32;;;;;;;0.35;0.30;;;25.90;55.00;;;;;;4383872;32;20184;-78
2023/06/13 10:38:37;;;;;;;0.37;0.37;;;25.90;56.10;;;;;;4388522;32;20533;-79
2023/06/13 10:41:27;;;;;;;0.20;0.20;;;26.10;55.00;;;;;;4377276;32;20076;-78
2023/06/13 10:44:04;;;;;;;1.80;0.50;;;26.20;55.30;;;;;;4374658;32;20665;-80
2023/06/13 10:46:32;;;;;;;0.77;0.40;;;26.30;55.90;;;;;;4396403;32;20141;-80
2023/06/13 10:49:00;;;;;;;0.20;0.20;;;26.20;57.00;;;;;;4388685;32;20214;-79
2023/06/13 10:51:27;;;;;;;0.85;0.60;;;26.30;57.50;;;;;;4398897;32;20125;-80
2023/06/13 10:54:12;;;;;;;0.30;0.30;;;26.80;56.50;;;;;;4396973;32;20110;-79
2023/06/13 10:56:41;;;;;;;0.45;0.45;;;26.90;56.40;;;;;;4389506;32;20507;-77
2023/06/13 10:59:09;;;;;;;0.20;0.20;;;26.60;56.20;;;;;;4382063;32;20097;-76
2023/06/13 11:01:36;;;;;;;0.40;0.40;;;26.30;56.50;;;;;;4393965;32;20085;-77
2023/06/13 11:04:07;;;;;;;0.65;0.60;;;26.00;55.90;;;;;;4390468;32;20176;-77
2023/06/13 11:06:32;;;;;;;0.88;0.60;;;25.70;57.40;;;;;;4394496;32;20487;-76
2023/06/13 11:09:19;;;;;;;2.05;0.98;;;25.60;57.50;;;;;;4399648;32;20192;-78
2023/06/13 11:11:48;;;;;;;1.33;0.37;;;25.40;58.50;;;;;;4381125;32;20209;-76
2023/06/13 11:14:15;;;;;;;0.57;0.57;;;24.90;57.70;;;;;;4398868;32;20111;-76
2023/06/13 11:16:43;;;;;;;0.25;0.25;;;24.60;58.30;;;;;;4393830;32;20057;-79
2023/06/13 11:19:17;;;;;;;0.35;0.35;;;24.50;58.50;;;;;;4389155;32;20109;-78
2023/06/13 11:22:06;;;;;;;0.32;0.32;;;24.60;59.30;;;;;;4394292;32;20569;-78
2023/06/13 11:24:34;;;;;;;0.20;0.20;;;24.90;59.90;;;;;;4378934;32;20392;-77
2023/06/13 11:27:00;;;;;;;0.20;0.20;;;25.00;57.10;;;;;;4389978;32;20099;-77
2023/06/13 11:29:28;;;;;;;0.65;0.65;;;24.90;55.80;;;;;;4391173;32;20081;-77
2023/06/13 11:31:55;;;;;;;1.17;0.93;;;24.90;55.10;;;;;;4391913;32;20661;-78
2023/06/13 11:34:24;;;;;;;0.20;0.20;;;25.10;56.10;;;;;;4396371;32;20519;-77
2023/06/13 11:36:50;;;;;;;0.62;0.62;;;25.50;56.00;;;;;;4403373;32;21088;-78
2023/06/13 11:39:26;;;;;;;0.10;0.10;;;25.90;55.50;;;;;;4391966;32;20097;-77
2023/06/13 11:41:52;;;;;;;16.00;0.52;;;26.20;55.50;;;;;;4387283;32;20528;-76
2023/06/13 11:44:18;;;;;;;0.37;0.30;;;26.30;55.80;;;;;;4385182;32;20202;-78
2023/06/13 11:46:46;;;;;;;0.50;0.40;;;26.50;56.30;;;;;;4390018;32;92206;-78
2023/06/13 11:49:14;;;;;;;0.52;0.45;;;26.70;56.80;;;;;;4392158;32;20872;-78
2023/06/13 11:51:41;;;;;;;0.77;0.52;;;26.90;57.20;;;;;;4391532;32;20537;-78
2023/06/13 11:54:07;;;;;;;0.20;0.20;;;27.20;57.30;;;;;;4397324;32;20622;-78
2023/06/13 11:56:36;;;;;;;0.22;0.22;;;27.60;56.70;;;;;;4401918;32;20304;-78
2023/06/13 11:59:16;;;;;;;0.30;0.30;;;27.80;56.70;;;;;;4407895;32;20121;-78
2023/06/13 12:01:48;;;;;;;0.20;0.20;;;28.30;56.40;;;;;;4387934;32;20160;-77
2023/06/13 12:04:14;;;;;;;0.10;0.10;;;28.80;56.00;;;;;;4397008;32;20176;-79
2023/06/13 12:06:40;;;;;;;0.68;0.40;;;29.20;54.00;;;;;;4397249;32;20086;-78
2023/06/13 12:09:06;;;;;;;0.90;0.50;;;29.70;52.80;;;;;;4403898;32;20745;-77
2023/06/13 12:11:33;;;;;;;0.43;0.25;;;29.90;52.90;;;;;;4401721;32;20065;-78
2023/06/13 12:14:01;;;;;;;1.45;0.68;;;29.40;52.90;;;;;;4404133;32;20480;-77
2023/06/13 12:16:29;;;;;;;0.68;0.55;;;29.70;52.60;;;;;;4400782;32;21590;-77
2023/06/13 12:18:56;;;;;;;0.50;0.43;;;29.70;53.00;;;;;;4405926;32;20101;-77
2023/06/13 12:21:25;;;;;;;0.75;0.52;;;30.10;52.70;;;;;;4397549;32;20101;-77
2023/06/13 12:23:51;;;;;;;0.00;0.00;;;30.30;52.10;;;;;;4403372;32;21051;-77
2023/06/13 12:26:17;;;;;;;0.35;0.35;;;30.80;52.00;;;;;;4401372;32;20106;-76
2023/06/13 12:28:44;;;;;;;1.20;0.73;;;30.70;52.20;;;;;;4402751;32;20085;-77
2023/06/13 12:31:09;;;;;;;10.57;2.12;;;30.60;51.50;;;;;;4395924;32;20664;-76
2023/06/13 12:33:36;;;;;;;3.75;0.98;;;29.80;52.70;;;;;;4393405;32;20181;-77
2023/06/13 12:36:05;;;;;;;0.00;0.00;;;29.70;52.70;;;;;;4401082;32;20161;-77
2023/06/13 12:38:31;;;;;;;0.25;0.25;;;29.50;52.70;;;;;;4399575;32;20294;-77
2023/06/13 12:40:57;;;;;;;0.10;0.10;;;28.50;52.70;;;;;;4398931;32;20172;-77
2023/06/13 12:43:24;;;;;;;4.37;0.43;;;27.90;54.10;;;;;;4405933;32;20225;-77
2023/06/13 12:45:51;;;;;;;0.70;0.30;;;28.40;54.30;;;;;;4409453;32;20079;-76
2023/06/13 12:48:18;;;;;;;0.10;0.10;;;29.10;52.70;;;;;;4407822;32;20085;-77
2023/06/13 12:50:44;;;;;;;1.65;1.02;;;28.50;53.00;;;;;;4401633;32;20102;-78